Time;durP1;ratioP1;P1;durP2;ratioP2;P2;SDS_P1;SDS_P2;PMS_P1;PMS_P2;Temp;Humidity;BMP_temperature;BMP_pressure;BME280_temperature;BME280_humidity;BME280_pressure;Samples;Min_cycle;Max_cycle;Signal;HPM_P1;HPM_P2
2022/02/25 00:00:15;;;;;;;2.47;1.20;;;;;;;5.18;71.18;100830.91;5049437;28;20411;-79
2022/02/25 00:02:40;;;;;;;2.43;0.90;;;;;;;5.12;70.93;100823.66;5033878;28;20406;-79
2022/02/25 00:05:06;;;;;;;3.47;1.20;;;;;;;5.11;70.30;100828.19;5043501;28;20416;-79
2022/02/25 00:07:31;;;;;;;4.43;1.30;;;;;;;5.11;70.19;100832.75;5057744;28;20469;-79
2022/02/25 00:09:57;;;;;;;2.20;0.90;;;;;;;5.09;69.66;100837.50;5047908;28;20414;-79
2022/02/25 00:12:22;;;;;;;3.75;1.35;;;;;;;5.06;70.12;100852.16;5047433;28;20891;-79
2022/02/25 00:14:49;;;;;;;3.20;1.17;;;;;;;5.08;70.25;100851.94;5042084;28;20419;-79
2022/02/25 00:17:14;;;;;;;3.10;1.00;;;;;;;5.10;70.68;100866.81;5047102;28;20408;-79
2022/02/25 00:19:40;;;;;;;4.57;1.97;;;;;;;5.07;70.93;100866.44;5035169;28;20422;-79
2022/02/25 00:22:05;;;;;;;6.57;1.77;;;;;;;4.99;70.76;100862.03;5061029;28;20505;-80
2022/02/25 00:24:30;;;;;;;3.47;1.40;;;;;;;4.94;70.73;100871.72;5031912;28;20482;-79
2022/02/25 00:26:56;;;;;;;4.80;1.20;;;;;;;4.83;69.45;100869.59;5078418;28;20397;-79
2022/02/25 00:29:21;;;;;;;2.97;1.13;;;;;;;4.75;69.13;100884.00;5035942;28;20399;-79
2022/02/25 00:31:46;;;;;;;2.50;1.30;;;;;;;4.66;68.93;100886.00;5077058;28;20463;-80
2022/02/25 00:34:11;;;;;;;2.83;1.07;;;;;;;4.67;68.16;100906.47;5049186;28;20411;-79
2022/02/25 00:36:37;;;;;;;2.28;1.05;;;;;;;4.59;68.71;100909.28;5033383;28;20411;-80
2022/02/25 00:39:03;;;;;;;2.93;0.97;;;;;;;4.54;68.58;100908.22;5063121;28;20417;-80
2022/02/25 00:41:28;;;;;;;1.90;0.70;;;;;;;4.57;68.84;100913.19;5050985;28;20757;-79
2022/02/25 00:43:53;;;;;;;5.83;1.07;;;;;;;4.56;68.19;100923.09;5060856;28;20394;-79
2022/02/25 00:46:18;;;;;;;2.97;0.70;;;;;;;4.61;68.12;100919.84;5055194;28;20401;-79
2022/02/25 00:48:44;;;;;;;2.60;0.80;;;;;;;4.50;68.55;100925.72;5047358;28;20410;-79
2022/02/25 00:51:09;;;;;;;3.77;1.00;;;;;;;4.41;68.39;100930.38;5048872;28;20397;-79
2022/02/25 00:53:34;;;;;;;4.90;0.90;;;;;;;4.45;68.66;100928.16;5035371;28;20403;-79
2022/02/25 00:56:00;;;;;;;4.60;0.97;;;;;;;4.47;68.60;100929.63;5042716;28;20870;-80
2022/02/25 00:58:25;;;;;;;4.03;1.20;;;;;;;4.35;68.70;100924.97;5045999;28;20394;-79
2022/02/25 01:00:51;;;;;;;3.73;0.90;;;;;;;4.34;68.91;100931.38;5042634;28;20806;-79
2022/02/25 01:03:16;;;;;;;5.07;0.80;;;;;;;4.40;68.57;100926.06;5035704;28;20410;-79
2022/02/25 01:05:42;;;;;;;3.27;0.80;;;;;;;4.37;68.86;100930.97;5032470;28;20834;-79
2022/02/25 01:08:11;;;;;;;3.15;1.02;;;;;;;4.36;68.42;100932.00;5044728;28;20389;-79
2022/02/25 01:10:39;;;;;;;5.53;1.52;;;;;;;4.33;68.81;100938.59;5036120;28;20429;-79
2022/02/25 01:13:05;;;;;;;3.47;0.90;;;;;;;4.27;69.19;100941.22;5031159;28;20420;-80
2022/02/25 01:15:31;;;;;;;7.53;1.10;;;;;;;4.27;69.04;100946.56;5039469;28;20769;-79
2022/02/25 01:17:58;;;;;;;5.53;1.70;;;;;;;4.34;68.90;100955.53;5039772;28;20398;-80
2022/02/25 01:20:24;;;;;;;5.00;0.88;;;;;;;4.32;68.86;100954.84;5036368;28;20467;-79
2022/02/25 01:22:49;;;;;;;6.50;1.50;;;;;;;4.25;69.14;100951.31;5067209;28;20421;-80
2022/02/25 01:25:15;;;;;;;3.60;1.00;;;;;;;4.27;69.01;100960.81;5050275;28;20405;-80
2022/02/25 01:27:41;;;;;;;6.67;1.13;;;;;;;4.26;69.46;100964.50;5049848;28;20477;-79
2022/02/25 01:30:09;;;;;;;3.30;0.90;;;;;;;4.24;69.52;100963.88;5045527;28;20393;-79
2022/02/25 01:32:35;;;;;;;3.92;1.20;;;;;;;4.24;69.47;100963.88;5048039;28;20452;-79
2022/02/25 01:35:01;;;;;;;3.93;0.97;;;;;;;4.26;69.59;100955.63;5048936;28;20414;-79
2022/02/25 01:37:27;;;;;;;2.80;0.85;;;;;;;4.25;69.45;100959.34;5040760;28;20395;-79
2022/02/25 01:39:52;;;;;;;4.07;1.00;;;;;;;4.29;69.81;100958.75;5034742;28;20407;-80
2022/02/25 01:42:18;;;;;;;5.38;0.80;;;;;;;4.27;69.53;100960.00;5033653;28;20434;-79
2022/02/25 01:44:43;;;;;;;3.05;1.52;;;;;;;4.22;69.83;100963.22;5039511;28;20735;-80
2022/02/25 01:47:14;;;;;;;2.57;1.23;;;;;;;4.21;70.06;100963.44;5041605;28;20393;-79
2022/02/25 01:49:41;;;;;;;4.93;1.00;;;;;;;4.23;69.93;100958.69;5036430;28;20865;-79
2022/02/25 01:52:14;;;;;;;3.97;1.23;;;;;;;4.19;70.02;100956.41;5047830;28;20397;-80
2022/02/25 01:54:44;;;;;;;6.63;1.73;;;;;;;4.16;70.40;100956.78;5047119;28;20398;-79
2022/02/25 01:57:12;;;;;;;6.57;1.50;;;;;;;4.14;70.53;100960.69;5039989;28;20855;-79
2022/02/25 01:59:38;;;;;;;7.05;1.23;;;;;;;4.18;70.48;100959.28;5046838;28;20873;-79
2022/02/25 02:02:05;;;;;;;4.43;0.93;;;;;;;4.16;70.43;100964.00;5049834;28;20556;-80
2022/02/25 02:04:30;;;;;;;2.92;1.15;;;;;;;4.12;70.88;100962.72;5047087;28;20409;-79
2022/02/25 02:06:56;;;;;;;5.20;1.43;;;;;;;4.14;70.48;100960.69;5038904;28;20886;-79
2022/02/25 02:09:22;;;;;;;4.15;1.05;;;;;;;4.14;70.84;100958.00;5038107;28;21042;-79
2022/02/25 02:11:51;;;;;;;5.63;1.50;;;;;;;4.13;71.09;100962.53;5043456;28;20413;-79
2022/02/25 02:14:18;;;;;;;5.80;1.33;;;;;;;4.12;70.92;100974.28;5048728;28;20409;-79
2022/02/25 02:16:45;;;;;;;3.67;1.20;;;;;;;4.07;71.09;100978.56;5055827;28;20521;-79
2022/02/25 02:19:11;;;;;;;5.78;1.10;;;;;;;4.07;71.16;100981.25;5045107;28;20398;-79
2022/02/25 02:21:41;;;;;;;3.70;0.90;;;;;;;4.07;71.22;100979.41;5032845;28;20402;-79
2022/02/25 02:24:06;;;;;;;5.45;1.40;;;;;;;4.07;71.39;100970.50;5042032;28;20412;-79
2022/02/25 02:26:32;;;;;;;7.33;2.10;;;;;;;4.01;71.25;100984.69;5037671;28;20410;-79
2022/02/25 02:28:58;;;;;;;7.73;1.63;;;;;;;4.03;71.21;100978.09;5030786;28;20461;-79
2022/02/25 02:31:23;;;;;;;6.38;1.65;;;;;;;4.03;71.50;100978.09;5032967;28;20475;-80
2022/02/25 02:33:49;;;;;;;1.53;1.00;;;;;;;4.02;71.68;100984.47;5043832;28;20485;-80
2022/02/25 02:36:14;;;;;;;6.32;1.67;;;;;;;3.97;71.54;100978.88;5034174;28;20410;-80
2022/02/25 02:38:40;;;;;;;8.15;1.83;;;;;;;3.98;71.54;100977.84;5036503;28;20900;-79
2022/02/25 02:41:06;;;;;;;10.80;1.70;;;;;;;3.95;71.51;100985.44;5035781;28;20396;-80
2022/02/25 02:43:32;;;;;;;8.02;1.67;;;;;;;3.93;71.76;100990.16;5038136;28;20405;-79
2022/02/25 02:45:58;;;;;;;8.63;1.30;;;;;;;3.96;71.86;100990.59;5042832;28;20402;-79
2022/02/25 02:48:23;;;;;;;8.52;1.88;;;;;;;3.94;71.31;100995.34;5031223;28;20391;-80
2022/02/25 02:50:49;;;;;;;7.22;1.98;;;;;;;3.91;71.93;100985.00;5047170;28;20420;-79
2022/02/25 02:53:14;;;;;;;5.25;1.20;;;;;;;3.92;71.80;100988.50;5045733;28;20819;-80
2022/02/25 02:55:43;;;;;;;6.53;1.40;;;;;;;3.89;71.80;100988.84;5046403;28;20398;-79
2022/02/25 02:58:10;;;;;;;9.30;1.73;;;;;;;3.81;72.12;100989.00;5036903;28;20402;-79
2022/02/25 03:00:37;;;;;;;10.85;2.88;;;;;;;3.75;72.13;100987.91;5031646;28;20506;-79
2022/02/25 03:03:03;;;;;;;9.27;2.17;;;;;;;3.76;72.08;100986.03;5048945;28;20430;-80
2022/02/25 03:05:28;;;;;;;9.27;2.03;;;;;;;3.79;71.98;100996.41;5049383;28;20447;-80
2022/02/25 03:07:53;;;;;;;7.20;1.27;;;;;;;3.76;72.01;100991.38;5048473;28;20888;-79
2022/02/25 03:10:19;;;;;;;6.88;1.42;;;;;;;3.74;72.18;100996.94;5043648;28;20401;-79
2022/02/25 03:12:45;;;;;;;8.00;1.80;;;;;;;3.74;72.51;101002.31;5048774;28;20421;-79
2022/02/25 03:15:13;;;;;;;8.35;2.55;;;;;;;3.73;72.39;101006.00;5034177;28;20947;-79
2022/02/25 03:17:39;;;;;;;11.38;1.92;;;;;;;3.71;72.20;101012.56;5044477;28;20791;-80
2022/02/25 03:20:05;;;;;;;6.73;1.70;;;;;;;3.67;72.46;101012.13;5055529;28;20407;-79
2022/02/25 03:22:31;;;;;;;11.83;2.40;;;;;;;3.73;72.45;101011.34;5050044;28;20855;-79
2022/02/25 03:24:57;;;;;;;7.78;1.90;;;;;;;3.73;72.64;101014.03;5030793;28;20412;-79
2022/02/25 03:27:23;;;;;;;8.88;1.73;;;;;;;3.71;72.22;101007.22;5023079;28;20398;-79
2022/02/25 03:29:49;;;;;;;8.23;2.22;;;;;;;3.67;72.82;101014.78;5034067;28;20486;-79
2022/02/25 03:32:14;;;;;;;11.00;1.60;;;;;;;3.60;72.73;101014.72;5029012;28;20407;-79
2022/02/25 03:34:40;;;;;;;4.40;1.37;;;;;;;3.57;72.98;101017.75;5042106;28;20748;-79
2022/02/25 03:37:06;;;;;;;9.40;2.07;;;;;;;3.58;73.00;101016.75;5054168;28;20947;-79
2022/02/25 03:39:31;;;;;;;11.17;2.33;;;;;;;3.53;73.10;101019.13;5021828;28;20451;-79
2022/02/25 03:41:56;;;;;;;9.40;2.23;;;;;;;3.57;73.06;101019.59;5026352;28;20797;-80
2022/02/25 03:44:22;;;;;;;9.30;2.43;;;;;;;3.52;72.97;101025.50;5025591;28;20411;-80
2022/02/25 03:46:47;;;;;;;10.80;2.00;;;;;;;3.50;73.47;101018.69;5026664;28;20477;-80
2022/02/25 03:49:13;;;;;;;7.87;1.53;;;;;;;3.51;73.37;101025.72;5023312;28;21036;-79
2022/02/25 03:51:38;;;;;;;10.90;2.10;;;;;;;3.53;73.35;101023.66;5018302;28;20401;-79
2022/02/25 03:54:04;;;;;;;7.33;1.50;;;;;;;3.52;73.36;101030.06;5019420;28;20459;-80
2022/02/25 03:56:29;;;;;;;10.63;1.90;;;;;;;3.52;73.67;101035.41;5013310;28;20409;-79
2022/02/25 03:58:55;;;;;;;9.95;2.28;;;;;;;3.51;73.32;101037.25;5026291;28;20790;-79
2022/02/25 04:01:20;;;;;;;8.20;1.88;;;;;;;3.53;73.54;101053.13;5020057;28;20404;-79
2022/02/25 04:03:46;;;;;;;7.55;1.30;;;;;;;3.51;73.41;101047.16;5012216;28;20479;-79
2022/02/25 04:06:11;;;;;;;12.10;2.40;;;;;;;3.45;73.44;101047.88;5018620;28;20421;-79
2022/02/25 04:08:36;;;;;;;8.70;3.63;;;;;;;3.51;73.83;101052.50;5024547;28;20401;-79
2022/02/25 04:11:02;;;;;;;10.10;2.10;;;;;;;3.56;73.38;101052.78;5012473;28;20594;-79
2022/02/25 04:13:27;;;;;;;14.07;2.53;;;;;;;3.56;73.29;101055.44;5027257;28;20415;-79
2022/02/25 04:15:52;;;;;;;11.40;1.70;;;;;;;3.55;73.44;101053.81;5012050;28;20884;-79
2022/02/25 04:18:18;;;;;;;9.23;1.90;;;;;;;3.56;73.19;101060.81;5012708;28;20413;-79
2022/02/25 04:20:43;;;;;;;9.20;2.43;;;;;;;3.57;73.26;101065.16;5026382;28;20423;-78
2022/02/25 04:23:09;;;;;;;8.60;2.60;;;;;;;3.54;73.31;101066.38;5018815;28;20396;-79
2022/02/25 04:25:34;;;;;;;9.57;1.90;;;;;;;3.48;73.60;101058.25;5014315;28;20872;-78
2022/02/25 04:27:59;;;;;;;9.13;2.50;;;;;;;3.46;73.58;101066.44;5022613;28;20480;-79
2022/02/25 04:30:26;;;;;;;9.73;2.10;;;;;;;3.46;73.44;101063.75;5023913;28;20868;-79
2022/02/25 04:32:51;;;;;;;9.98;2.15;;;;;;;3.52;73.59;101062.22;5050065;28;20488;-79
2022/02/25 04:35:19;;;;;;;11.50;3.00;;;;;;;3.56;73.33;101066.16;5011474;28;20495;-79
2022/02/25 04:37:44;;;;;;;12.32;3.50;;;;;;;3.57;73.38;101073.19;5018735;28;20461;-79
2022/02/25 04:40:10;;;;;;;13.07;2.43;;;;;;;3.48;73.46;101071.63;5022717;28;20424;-80
2022/02/25 04:42:35;;;;;;;8.98;2.38;;;;;;;3.50;73.49;101073.09;5018478;28;20430;-79
2022/02/25 04:45:01;;;;;;;10.70;2.60;;;;;;;3.44;73.60;101083.72;5012483;28;20408;-79
2022/02/25 04:47:26;;;;;;;9.10;2.17;;;;;;;3.49;73.51;101078.66;5017357;28;20469;-79
2022/02/25 04:49:51;;;;;;;11.07;2.30;;;;;;;3.49;73.16;101079.47;5023613;28;20459;-79
2022/02/25 04:52:17;;;;;;;10.03;2.17;;;;;;;3.48;73.43;101080.50;5021654;28;20405;-80
2022/02/25 04:54:43;;;;;;;11.18;2.05;;;;;;;3.47;73.25;101072.63;5011016;28;20417;-79
2022/02/25 04:57:09;;;;;;;9.67;2.20;;;;;;;3.44;73.50;101076.53;5028369;28;20414;-78
2022/02/25 04:59:34;;;;;;;9.93;2.73;;;;;;;3.48;73.25;101072.47;5025246;28;20416;-79
2022/02/25 05:01:59;;;;;;;7.30;1.87;;;;;;;3.42;73.40;101075.06;5022336;28;20387;-79
2022/02/25 05:04:25;;;;;;;9.40;2.73;;;;;;;3.42;73.23;101077.72;5021211;28;20408;-79
2022/02/25 05:06:50;;;;;;;16.97;3.77;;;;;;;3.38;73.63;101081.78;5042933;28;20398;-79
2022/02/25 05:09:15;;;;;;;13.33;3.93;;;;;;;3.36;73.72;101097.22;5046028;28;20506;-79
2022/02/25 05:11:40;;;;;;;9.30;2.83;;;;;;;3.29;73.75;101091.75;5046885;28;20425;-79
2022/02/25 05:20:14;;;;;;;15.00;4.87;;;;;;;3.33;73.50;101098.41;5080765;28;20888;-80
2022/02/25 05:22:19;;;;;;;12.40;3.47;;;;;;;3.37;73.51;101104.22;5045246;28;20504;-79
2022/02/25 05:24:44;;;;;;;13.43;3.83;;;;;;;3.35;73.38;101098.22;5048791;28;20500;-79
2022/02/25 05:27:10;;;;;;;12.77;2.90;;;;;;;3.40;73.60;101111.91;5048996;28;20416;-78
2022/02/25 05:29:35;;;;;;;12.83;2.93;;;;;;;3.37;73.67;101104.22;5049013;28;20425;-78
2022/02/25 05:32:00;;;;;;;13.13;3.33;;;;;;;3.39;73.40;101116.41;5036466;28;20419;-78
2022/02/25 05:34:25;;;;;;;12.88;3.45;;;;;;;3.39;73.51;101120.97;5078528;28;20399;-78
2022/02/25 05:36:51;;;;;;;14.47;3.80;;;;;;;3.38;73.61;101124.66;5047202;28;20401;-79
2022/02/25 05:39:16;;;;;;;14.87;2.87;;;;;;;3.37;73.68;101139.06;5044743;28;20500;-79
2022/02/25 05:41:41;;;;;;;13.48;2.92;;;;;;;3.37;73.21;101120.28;5045418;28;20890;-79
2022/02/25 05:44:07;;;;;;;13.37;2.97;;;;;;;3.34;73.34;101132.22;5042677;28;20440;-79
2022/02/25 05:46:32;;;;;;;11.33;2.73;;;;;;;3.27;73.51;101131.28;5051363;28;20484;-79
2022/02/25 05:48:57;;;;;;;15.82;3.58;;;;;;;3.30;73.56;101127.38;5046774;28;20492;-79
2022/02/25 05:51:22;;;;;;;12.93;4.30;;;;;;;3.29;73.87;101131.94;5047164;28;20439;-79
2022/02/25 05:53:48;;;;;;;11.73;3.37;;;;;;;3.22;73.93;101131.00;5047419;28;20760;-80
2022/02/25 05:56:13;;;;;;;9.97;2.43;;;;;;;3.26;73.97;101134.94;5048680;28;20431;-79
2022/02/25 05:58:38;;;;;;;10.90;2.90;;;;;;;3.24;74.08;101137.00;5042342;28;20764;-78
2022/02/25 06:01:04;;;;;;;13.47;3.40;;;;;;;3.22;74.21;101143.56;5040941;28;20547;-80
2022/02/25 06:03:29;;;;;;;11.60;2.60;;;;;;;3.19;74.09;101142.06;5042057;28;20405;-79
2022/02/25 06:05:54;;;;;;;9.10;2.40;;;;;;;3.23;74.05;101150.59;5037573;28;20410;-80
2022/02/25 06:08:19;;;;;;;8.63;2.90;;;;;;;3.22;73.56;101152.44;5050803;28;20405;-78
2022/02/25 06:10:45;;;;;;;11.57;3.20;;;;;;;3.21;73.90;101152.59;5047418;28;20409;-80
2022/02/25 06:13:10;;;;;;;13.13;2.80;;;;;;;3.26;73.94;101156.38;5042677;28;20411;-79
2022/02/25 06:15:35;;;;;;;13.03;2.87;;;;;;;3.20;73.88;101148.25;5042743;28;20516;-79
2022/02/25 06:18:01;;;;;;;11.57;2.83;;;;;;;3.23;73.79;101154.06;5033633;28;20399;-79
2022/02/25 06:20:26;;;;;;;10.00;2.73;;;;;;;3.19;73.97;101159.97;5044392;28;20472;-80
2022/02/25 06:22:51;;;;;;;11.57;2.93;;;;;;;3.19;73.89;101163.50;5038772;28;20416;-78
2022/02/25 06:25:17;;;;;;;11.90;3.08;;;;;;;3.19;74.07;101163.50;5043998;28;20449;-80
2022/02/25 06:27:43;;;;;;;10.67;3.00;;;;;;;3.25;73.76;101172.66;5057486;28;20482;-79
2022/02/25 06:30:10;;;;;;;8.43;2.40;;;;;;;3.27;73.98;101176.81;5047080;28;20405;-78
2022/02/25 06:32:37;;;;;;;10.38;3.40;;;;;;;3.28;74.19;101166.94;5042716;28;20397;-79
2022/02/25 06:35:02;;;;;;;10.17;2.47;;;;;;;3.33;74.06;101168.03;5046045;28;21033;-80
2022/02/25 06:37:28;;;;;;;10.67;2.83;;;;;;;3.41;73.71;101178.72;5049693;28;20443;-79
2022/02/25 06:39:54;;;;;;;10.35;3.40;;;;;;;3.46;73.49;101186.19;5052048;28;20888;-80
2022/02/25 06:42:20;;;;;;;8.50;3.90;;;;;;;3.39;73.29;101179.91;5051484;28;20959;-80
2022/02/25 06:44:45;;;;;;;15.07;4.77;;;;;;;3.29;73.75;101190.03;5048918;28;20501;-80
2022/02/25 06:47:10;;;;;;;17.20;5.45;;;;;;;3.29;73.94;101195.41;5050393;28;20409;-80
2022/02/25 06:49:38;;;;;;;13.23;4.97;;;;;;;3.33;74.09;101194.84;5051186;28;20807;-80
2022/02/25 06:52:04;;;;;;;12.25;3.80;;;;;;;3.33;74.37;101194.00;5045439;28;20427;-79
2022/02/25 06:54:29;;;;;;;7.77;2.87;;;;;;;3.29;73.91;101196.22;5051279;28;21008;-80
2022/02/25 06:56:55;;;;;;;15.90;3.07;;;;;;;3.38;73.69;101203.19;5052309;28;20580;-80
2022/02/25 06:59:20;;;;;;;8.15;2.35;;;;;;;3.43;73.53;101208.81;5052621;28;20423;-81
2022/02/25 07:01:46;;;;;;;14.43;3.07;;;;;;;3.48;73.64;101205.63;5046046;28;20407;-80
2022/02/25 07:04:11;;;;;;;10.33;2.73;;;;;;;3.53;73.77;101208.56;5044889;28;20481;-80
2022/02/25 07:06:38;;;;;;;12.23;3.73;;;;;;;3.52;73.63;101196.19;5046660;28;20417;-80
2022/02/25 07:09:05;;;;;;;7.95;3.15;;;;;;;3.57;73.34;101209.88;5048996;28;20409;-81
2022/02/25 07:11:32;;;;;;;8.13;2.92;;;;;;;3.55;73.15;101207.41;5044941;28;20836;-80
2022/02/25 07:13:57;;;;;;;13.52;3.00;;;;;;;3.61;73.07;101209.34;5049754;28;20400;-80
2022/02/25 07:16:22;;;;;;;14.13;3.30;;;;;;;3.65;73.23;101209.81;5047842;28;20411;-80
2022/02/25 07:18:48;;;;;;;9.52;2.85;;;;;;;3.66;73.26;101223.03;5045979;28;20778;-79
2022/02/25 07:21:13;;;;;;;12.50;3.70;;;;;;;3.67;73.16;101215.81;5039328;28;20506;-78
2022/02/25 07:23:39;;;;;;;13.87;3.23;;;;;;;3.74;73.31;101224.81;5046675;28;20409;-80
2022/02/25 07:26:06;;;;;;;10.68;2.75;;;;;;;3.78;72.60;101231.47;5066590;28;20405;-79
2022/02/25 07:28:32;;;;;;;9.90;2.63;;;;;;;3.87;72.41;101227.69;5052754;28;20501;-80
2022/02/25 07:30:57;;;;;;;14.97;2.77;;;;;;;3.91;72.21;101225.47;5053012;28;20488;-81
2022/02/25 07:33:23;;;;;;;9.17;2.50;;;;;;;4.07;72.01;101242.25;5063549;28;20535;-81
2022/02/25 07:35:48;;;;;;;11.53;2.47;;;;;;;4.22;72.38;101249.44;5052433;28;20447;-80
2022/02/25 07:38:13;;;;;;;8.77;2.83;;;;;;;4.31;71.58;101249.19;5051362;28;20443;-79
2022/02/25 07:40:39;;;;;;;7.80;2.57;;;;;;;4.27;71.27;101253.25;5050968;28;20503;-79
2022/02/25 07:43:04;;;;;;;10.25;3.38;;;;;;;4.46;70.75;101251.88;5045421;28;20894;-79
2022/02/25 07:45:30;;;;;;;10.93;2.77;;;;;;;4.66;70.33;101256.50;5055214;28;20418;-77
2022/02/25 07:47:55;;;;;;;8.70;2.00;;;;;;;4.77;69.94;101251.66;5038553;28;20406;-81
2022/02/25 07:50:21;;;;;;;7.77;2.37;;;;;;;4.86;69.53;101263.94;5049979;28;20406;-79
2022/02/25 07:52:49;;;;;;;13.20;2.60;;;;;;;4.92;69.28;101258.66;5053292;28;20481;-80
2022/02/25 07:55:14;;;;;;;10.65;3.08;;;;;;;4.89;69.14;101269.78;5048297;28;20498;-80
2022/02/25 07:57:40;;;;;;;8.63;2.43;;;;;;;4.82;69.01;101270.72;5047462;28;20523;-81
2022/02/25 08:00:09;;;;;;;11.13;2.90;;;;;;;4.86;68.77;101272.84;5040990;28;20423;-81
2022/02/25 08:02:35;;;;;;;12.60;2.25;;;;;;;4.80;69.09;101270.91;5050181;28;20414;-80
2022/02/25 08:05:00;;;;;;;9.73;2.78;;;;;;;4.81;68.76;101275.25;5078337;28;20413;-81
2022/02/25 08:07:25;;;;;;;12.50;3.37;;;;;;;4.90;69.16;101274.13;5044440;28;20396;-80
2022/02/25 08:09:52;;;;;;;13.07;2.60;;;;;;;5.08;68.35;101271.03;5052770;28;20393;-80
2022/02/25 08:12:18;;;;;;;9.02;2.90;;;;;;;5.34;67.60;101274.00;5050237;28;20413;-80
2022/02/25 08:14:43;;;;;;;9.37;2.10;;;;;;;5.47;67.21;101273.28;5038615;28;20477;-80
2022/02/25 08:17:08;;;;;;;8.70;2.33;;;;;;;5.56;66.40;101269.47;5062236;28;20399;-81
2022/02/25 08:19:35;;;;;;;9.23;2.67;;;;;;;5.82;65.68;101266.19;5067260;28;20413;-80
2022/02/25 08:22:00;;;;;;;8.75;2.45;;;;;;;5.64;66.25;101278.25;5039877;28;20417;-80
2022/02/25 08:24:25;;;;;;;7.25;2.65;;;;;;;5.35;66.85;101273.00;5052359;28;20386;-80
2022/02/25 08:26:51;;;;;;;12.40;3.63;;;;;;;5.37;66.81;101270.13;5047517;28;20397;-81
2022/02/25 08:29:16;;;;;;;13.47;3.97;;;;;;;5.51;66.35;101264.66;5050074;28;20817;-80
2022/02/25 08:31:44;;;;;;;9.93;2.83;;;;;;;5.57;66.22;101271.13;5043868;28;20455;-80
2022/02/25 08:34:10;;;;;;;10.43;2.45;;;;;;;5.62;65.71;101264.16;5073071;28;20803;-81
2022/02/25 08:36:36;;;;;;;7.53;1.98;;;;;;;5.81;65.05;101261.81;5052400;28;20409;-81
2022/02/25 08:39:02;;;;;;;12.57;2.27;;;;;;;5.94;65.43;101259.28;5047962;28;20849;-80
2022/02/25 08:41:27;;;;;;;12.68;3.20;;;;;;;5.95;65.14;101253.72;5052251;28;20398;-81
2022/02/25 08:43:53;;;;;;;7.67;2.50;;;;;;;5.92;65.46;101264.03;5052097;28;20400;-81
2022/02/25 08:46:18;;;;;;;11.40;2.80;;;;;;;5.90;65.51;101263.38;5052515;28;21011;-81
2022/02/25 08:48:43;;;;;;;11.43;2.80;;;;;;;5.97;65.96;101262.41;5044147;28;20410;-80
2022/02/25 08:51:09;;;;;;;7.77;2.60;;;;;;;6.15;65.65;101275.38;5059769;28;20411;-80
2022/02/25 08:53:34;;;;;;;12.77;2.70;;;;;;;6.30;64.43;101270.72;5045795;28;20481;-83
2022/02/25 08:56:00;;;;;;;9.80;3.28;;;;;;;6.33;64.30;101264.09;5041770;28;20449;-80
2022/02/25 08:58:25;;;;;;;9.83;2.40;;;;;;;6.30;63.53;101273.41;5043553;28;20410;-80
2022/02/25 09:00:50;;;;;;;13.20;2.50;;;;;;;6.17;63.46;101274.16;5072260;28;20995;-79
2022/02/25 09:03:16;;;;;;;12.27;2.38;;;;;;;6.30;63.36;101264.50;5051371;28;20433;-80
2022/02/25 09:05:42;;;;;;;10.25;2.28;;;;;;;6.45;62.99;101268.75;5045303;28;20812;-80
2022/02/25 09:08:07;;;;;;;9.17;3.33;;;;;;;6.57;62.38;101266.31;5040495;28;20486;-80
2022/02/25 09:10:33;;;;;;;10.70;2.23;;;;;;;6.80;61.91;101266.84;5049095;28;20408;-80
2022/02/25 09:12:58;;;;;;;12.07;2.63;;;;;;;7.16;61.53;101271.97;5045381;28;20407;-81
2022/02/25 09:15:26;;;;;;;10.63;2.30;;;;;;;7.81;60.08;101268.53;5045745;28;20471;-80
2022/02/25 09:17:59;;;;;;;12.38;2.78;;;;;;;8.39;57.65;101263.34;5051446;28;20394;-80
2022/02/25 09:20:26;;;;;;;9.13;2.58;;;;;;;8.50;56.67;101271.63;5044784;28;20900;-81
2022/02/25 09:22:52;;;;;;;8.40;2.30;;;;;;;8.28;57.16;101271.06;5050758;28;20451;-81
2022/02/25 09:25:17;;;;;;;11.85;3.00;;;;;;;8.11;58.26;101283.28;5046087;28;20410;-80
2022/02/25 09:27:44;;;;;;;13.63;4.10;;;;;;;8.40;56.98;101271.22;5041436;28;20395;-80
2022/02/25 09:30:12;;;;;;;12.95;3.45;;;;;;;9.16;55.30;101269.50;5046508;28;20776;-80
2022/02/25 09:32:38;;;;;;;11.65;3.30;;;;;;;9.05;54.58;101272.06;5048769;28;20410;-80
2022/02/25 09:35:05;;;;;;;6.35;2.45;;;;;;;9.06;55.36;101279.94;5048445;28;20405;-80
2022/02/25 09:37:34;;;;;;;14.20;2.97;;;;;;;9.89;53.17;101272.56;5049469;28;20954;-80
2022/02/25 09:40:05;;;;;;;8.02;3.13;;;;;;;10.19;51.74;101279.00;5040061;28;20821;-78
2022/02/25 09:42:31;;;;;;;13.05;3.47;;;;;;;9.39;52.94;101271.66;5047937;28;20436;-81
2022/02/25 09:44:56;;;;;;;10.87;2.67;;;;;;;9.12;54.21;101272.88;5051094;28;20393;-81
2022/02/25 09:47:21;;;;;;;17.00;3.07;;;;;;;8.50;55.77;101266.22;5046995;28;20448;-80
2022/02/25 09:49:47;;;;;;;9.83;3.03;;;;;;;8.50;56.15;101259.97;5048717;28;20417;-79
2022/02/25 09:52:14;;;;;;;12.60;2.63;;;;;;;9.27;53.97;101273.41;5050328;28;20502;-80
2022/02/25 09:54:40;;;;;;;8.90;2.73;;;;;;;10.92;51.02;101268.22;5051202;28;20393;-78
2022/02/25 09:57:05;;;;;;;9.93;3.00;;;;;;;11.45;48.68;101271.06;5040025;28;20576;-80
2022/02/25 09:59:31;;;;;;;9.73;2.87;;;;;;;11.13;48.63;101275.06;5048180;28;20417;-79
2022/02/25 10:02:02;;;;;;;11.00;3.23;;;;;;;9.82;51.34;101285.31;5046989;28;20408;-80
2022/02/25 10:04:28;;;;;;;10.35;2.50;;;;;;;8.94;54.14;101287.06;5042944;28;20399;-81
2022/02/25 10:06:54;;;;;;;9.15;3.05;;;;;;;9.47;54.40;101287.66;5036527;28;20401;-79
2022/02/25 10:09:37;;;;;;;9.73;2.57;;;;;;;11.46;49.13;101280.81;5044299;28;20414;-79
2022/02/25 10:12:11;;;;;;;11.88;2.88;;;;;;;10.86;49.20;101274.53;5039531;28;20443;-80
2022/02/25 10:14:44;;;;;;;11.18;3.42;;;;;;;11.76;46.82;101275.41;5039712;28;20508;-80
2022/02/25 10:17:19;;;;;;;13.63;3.22;;;;;;;11.63;46.79;101283.72;5054503;28;20843;-80
2022/02/25 10:19:52;;;;;;;12.60;2.93;;;;;;;10.63;48.85;101275.22;5043392;28;20449;-79
2022/02/25 10:22:22;;;;;;;11.35;2.70;;;;;;;12.22;47.11;101289.06;5057691;28;20444;-80
2022/02/25 10:24:48;;;;;;;10.13;2.38;;;;;;;13.36;44.15;101287.47;5054705;28;20877;-80
2022/02/25 10:27:43;;;;;;;10.47;2.63;;;;;;;14.10;41.12;101280.06;5046624;28;20876;-81
2022/02/25 10:30:10;;;;;;;11.05;3.45;;;;;;;15.70;38.83;101277.03;5045147;28;20391;-80
2022/02/25 10:32:39;;;;;;;6.82;2.47;;;;;;;17.38;35.95;101286.84;5046623;28;20401;-81
2022/02/25 10:35:23;;;;;;;8.00;2.70;;;;;;;18.32;33.34;101280.09;5052855;28;20915;-81
2022/02/25 10:38:04;;;;;;;7.50;2.20;;;;;;;18.00;33.43;101283.97;5067518;28;20413;-81
2022/02/25 10:40:32;;;;;;;10.93;3.03;;;;;;;15.37;36.72;101286.22;5044733;28;20424;-81
2022/02/25 10:42:59;;;;;;;8.20;2.13;;;;;;;12.96;41.87;101293.72;5051439;28;20459;-81
2022/02/25 10:45:38;;;;;;;11.13;2.83;;;;;;;11.66;45.17;101285.97;5052619;28;20409;-81
2022/02/25 10:48:07;;;;;;;12.32;3.03;;;;;;;11.03;46.87;101289.13;5044000;28;20409;-80
2022/02/25 10:50:52;;;;;;;8.20;2.47;;;;;;;10.27;49.32;101296.88;5051953;28;20818;-81
2022/02/25 10:53:25;;;;;;;8.77;2.25;;;;;;;10.50;48.62;101285.38;5064707;28;20401;-85
2022/02/25 10:56:02;;;;;;;12.20;2.73;;;;;;;10.51;48.96;101281.59;5061023;28;20500;-80
2022/02/25 10:58:40;;;;;;;12.40;2.92;;;;;;;10.57;48.28;101291.56;5046323;28;20413;-81
2022/02/25 11:01:05;;;;;;;9.27;3.42;;;;;;;10.48;48.73;101282.03;5049852;28;20424;-80
2022/02/25 11:03:31;;;;;;;12.43;2.80;;;;;;;10.38;50.21;101282.56;5048177;28;20405;-80
2022/02/25 11:05:57;;;;;;;11.80;3.43;;;;;;;9.94;50.83;101289.00;5050886;28;20393;-80
2022/02/25 11:08:23;;;;;;;15.68;3.35;;;;;;;9.66;51.50;101288.56;5045968;28;20411;-78
2022/02/25 11:10:48;;;;;;;10.00;3.20;;;;;;;9.48;52.08;101281.19;5043694;28;20425;-79
2022/02/25 11:13:15;;;;;;;10.48;3.45;;;;;;;9.19;53.15;101274.47;5043349;28;20409;-79
2022/02/25 11:15:43;;;;;;;10.98;3.45;;;;;;;9.03;53.37;101277.66;5053490;28;20413;-80
2022/02/25 11:18:09;;;;;;;8.07;2.70;;;;;;;8.75;54.58;101277.16;5049331;28;20473;-79
2022/02/25 11:20:37;;;;;;;9.80;2.50;;;;;;;8.85;53.94;101267.56;5051931;28;20507;-79
2022/02/25 11:23:03;;;;;;;7.35;2.65;;;;;;;8.63;54.34;101271.59;5048833;28;20402;-79
2022/02/25 11:25:30;;;;;;;9.82;3.58;;;;;;;8.62;55.40;101266.41;5082930;28;20405;-79
2022/02/25 11:27:56;;;;;;;12.98;3.28;;;;;;;8.72;55.71;101269.50;5053553;28;20393;-79
2022/02/25 11:30:27;;;;;;;11.63;3.20;;;;;;;8.65;55.74;101260.56;5053476;28;20401;-79